Time;durP1;ratioP1;P1;durP2;ratioP2;P2;SDS_P1;SDS_P2;PMS_P1;PMS_P2;Temp;Humidity;BMP_temperature;BMP_pressure;BME280_temperature;BME280_humidity;BME280_pressure;Samples;Min_cycle;Max_cycle;Signal;HPM_P1;HPM_P2
2022/04/06 00:00:19;;;;;;;4.03;0.63;;;21.30;99.90;;;;;;4984281;28;20120;-74
2022/04/06 00:02:47;;;;;;;1.35;0.50;;;21.30;99.90;;;;;;4985480;28;20085;-74
2022/04/06 00:05:14;;;;;;;3.65;1.08;;;21.30;99.90;;;;;;4979096;28;20107;-75
2022/04/06 00:07:43;;;;;;;1.45;0.47;;;21.20;99.90;;;;;;4978044;28;20057;-74
2022/04/06 00:10:12;;;;;;;1.35;0.65;;;21.30;99.90;;;;;;4975245;28;20053;-74
2022/04/06 00:12:40;;;;;;;1.70;0.50;;;21.30;99.90;;;;;;4973376;28;20030;-74
2022/04/06 00:15:10;;;;;;;1.42;0.68;;;21.10;99.90;;;;;;4976323;28;20489;-73
2022/04/06 00:17:39;;;;;;;2.75;0.50;;;21.10;99.90;;;;;;4969363;28;20481;-76
2022/04/06 00:20:07;;;;;;;0.82;0.50;;;21.10;99.90;;;;;;4973751;28;20027;-74
2022/04/06 00:22:35;;;;;;;1.92;0.60;;;21.00;99.90;;;;;;4980630;28;20042;-74
2022/04/06 00:25:02;;;;;;;1.42;0.43;;;21.10;99.90;;;;;;4975530;28;20101;-74
2022/04/06 00:27:29;;;;;;;1.98;0.50;;;21.20;99.90;;;;;;4985771;28;20049;-74
2022/04/06 00:29:57;;;;;;;0.68;0.40;;;21.40;99.90;;;;;;4985939;28;20535;-75
2022/04/06 00:32:25;;;;;;;0.90;0.45;;;21.40;99.90;;;;;;4974976;28;20422;-72
2022/04/06 00:37:37;;;;;;;2.53;0.50;;;21.40;99.90;;;;;;4980069;28;20069;-72
2022/04/06 00:40:08;;;;;;;0.88;0.50;;;21.40;99.90;;;;;;4974539;28;20307;-74
2022/04/06 00:42:35;;;;;;;4.07;0.70;;;21.40;99.90;;;;;;4970832;28;20035;-73
2022/04/06 00:45:03;;;;;;;2.80;0.40;;;21.50;99.90;;;;;;4987046;28;20022;-73
2022/04/06 00:47:30;;;;;;;1.55;0.40;;;21.60;99.90;;;;;;4979616;28;20069;-74
2022/04/06 00:49:58;;;;;;;0.82;0.35;;;21.50;99.90;;;;;;4969515;28;20102;-75
2022/04/06 00:52:25;;;;;;;1.02;0.80;;;21.30;99.90;;;;;;4970006;28;20058;-74
2022/04/06 00:54:53;;;;;;;0.80;0.50;;;21.10;99.90;;;;;;4971224;28;20031;-74
2022/04/06 00:57:21;;;;;;;1.85;0.40;;;21.00;99.90;;;;;;4972606;28;20507;-73
2022/04/06 00:59:48;;;;;;;1.45;0.40;;;21.00;99.90;;;;;;4985974;28;20389;-72
2022/04/06 01:02:17;;;;;;;1.15;0.60;;;21.20;99.90;;;;;;4985537;28;20081;-74
2022/04/06 01:04:44;;;;;;;1.15;0.38;;;21.30;99.90;;;;;;4979395;28;20035;-73
2022/04/06 01:07:13;;;;;;;1.02;0.57;;;21.40;99.90;;;;;;4982468;28;20102;-72
2022/04/06 01:09:41;;;;;;;2.13;0.60;;;21.50;99.90;;;;;;4978317;28;20109;-73
2022/04/06 01:12:08;;;;;;;0.93;0.50;;;21.40;99.90;;;;;;4980768;28;20397;-73
2022/04/06 01:14:38;;;;;;;1.40;0.40;;;21.40;99.90;;;;;;4979382;28;20038;-72
2022/04/06 01:17:07;;;;;;;0.85;0.40;;;21.40;99.90;;;;;;4984653;28;20473;-73
2022/04/06 01:19:40;;;;;;;2.45;0.55;;;21.50;99.90;;;;;;4976885;28;20038;-74
2022/04/06 01:22:15;;;;;;;1.25;0.60;;;21.50;99.90;;;;;;4978063;28;20039;-74
2022/04/06 01:24:44;;;;;;;2.17;0.45;;;21.50;99.90;;;;;;4975325;28;20031;-72
2022/04/06 01:27:12;;;;;;;0.82;0.30;;;21.60;99.90;;;;;;4981869;28;20034;-74
2022/04/06 01:29:43;;;;;;;1.35;0.40;;;21.80;99.90;;;;;;4980124;28;20047;-73
2022/04/06 01:32:14;;;;;;;1.25;0.45;;;22.10;99.90;;;;;;4975700;28;20046;-72
2022/04/06 01:34:42;;;;;;;1.83;0.50;;;22.10;99.90;;;;;;4981442;28;20100;-73
2022/04/06 01:37:13;;;;;;;0.50;0.43;;;21.90;99.90;;;;;;4991546;28;20488;-73
2022/04/06 01:39:42;;;;;;;0.50;0.38;;;21.90;99.90;;;;;;4977432;28;20549;-74
2022/04/06 01:42:12;;;;;;;1.90;0.32;;;21.80;99.90;;;;;;4973961;28;20043;-72
2022/04/06 01:44:39;;;;;;;1.20;0.30;;;21.80;99.90;;;;;;4972131;28;20034;-74
2022/04/06 01:47:08;;;;;;;1.10;0.30;;;21.80;99.90;;;;;;4980572;28;20019;-72
2022/04/06 01:52:23;;;;;;;0.80;0.38;;;21.80;99.90;;;;;;4985480;28;20041;-72
2022/04/06 01:54:53;;;;;;;1.02;0.68;;;21.70;99.90;;;;;;4977310;28;20564;-72
2022/04/06 01:57:21;;;;;;;3.47;0.40;;;21.50;99.90;;;;;;4975599;28;20129;-72
2022/04/06 01:59:49;;;;;;;2.30;0.40;;;21.40;99.90;;;;;;4988058;28;20037;-73
2022/04/06 02:02:18;;;;;;;1.33;0.70;;;21.40;99.90;;;;;;4973303;28;20373;-72
2022/04/06 02:04:46;;;;;;;2.63;0.30;;;21.40;99.90;;;;;;4971499;28;20026;-72
2022/04/06 02:07:16;;;;;;;1.55;0.30;;;21.50;99.90;;;;;;4976104;28;20080;-73
2022/04/06 02:09:44;;;;;;;1.15;0.28;;;21.40;99.90;;;;;;4975705;28;20393;-73
2022/04/06 02:12:12;;;;;;;0.45;0.30;;;21.40;99.90;;;;;;4986232;28;20034;-72
2022/04/06 02:14:41;;;;;;;0.50;0.30;;;21.30;99.90;;;;;;4973444;28;20038;-74
2022/04/06 02:17:09;;;;;;;1.70;0.30;;;21.20;99.90;;;;;;4980660;28;20081;-74
2022/04/06 02:19:39;;;;;;;0.17;0.15;;;21.10;99.90;;;;;;4974357;28;20023;-73
2022/04/06 02:22:08;;;;;;;0.98;0.20;;;21.20;99.90;;;;;;4969414;28;20081;-74
2022/04/06 02:24:36;;;;;;;1.08;0.30;;;21.20;99.90;;;;;;4972746;28;20078;-74
2022/04/06 02:27:07;;;;;;;0.73;0.20;;;21.20;99.90;;;;;;4973416;28;20026;-73
2022/04/06 02:29:35;;;;;;;0.20;0.20;;;21.20;99.90;;;;;;4972248;28;20105;-73
2022/04/06 02:32:02;;;;;;;1.52;0.45;;;21.20;99.90;;;;;;4970811;28;20039;-73
2022/04/06 02:34:31;;;;;;;1.92;0.30;;;21.10;99.90;;;;;;4972604;28;20106;-73
2022/04/06 02:36:58;;;;;;;0.95;0.30;;;21.00;99.90;;;;;;4982733;28;20485;-73
2022/04/06 02:39:26;;;;;;;1.08;0.30;;;21.00;99.90;;;;;;4984963;28;20489;-72
2022/04/06 02:41:53;;;;;;;0.65;0.40;;;20.90;99.90;;;;;;4975113;28;20070;-72
2022/04/06 02:44:21;;;;;;;1.65;0.22;;;20.80;99.90;;;;;;4992894;28;20041;-73
2022/04/06 02:46:49;;;;;;;0.35;0.28;;;20.70;99.90;;;;;;4999092;28;20031;-72
2022/04/06 02:49:17;;;;;;;1.02;0.40;;;20.70;99.90;;;;;;4999358;28;20035;-74
2022/04/06 02:51:45;;;;;;;1.55;0.35;;;20.70;99.90;;;;;;4980828;28;20035;-73
2022/04/06 02:54:13;;;;;;;0.95;0.50;;;20.60;99.90;;;;;;4973657;28;20621;-74
2022/04/06 02:56:40;;;;;;;0.47;0.32;;;20.60;99.90;;;;;;4988217;28;20022;-74
2022/04/06 02:59:08;;;;;;;0.55;0.30;;;20.80;99.90;;;;;;4978881;28;20030;-75
2022/04/06 03:01:36;;;;;;;0.30;0.28;;;20.80;99.90;;;;;;4992856;28;20069;-73
2022/04/06 03:04:03;;;;;;;1.67;0.50;;;20.80;99.90;;;;;;4976400;28;20031;-74
2022/04/06 03:06:31;;;;;;;1.95;0.98;;;20.80;99.90;;;;;;4986828;28;20030;-73
2022/04/06 03:08:58;;;;;;;1.52;0.50;;;20.90;99.90;;;;;;4989211;28;20058;-73
2022/04/06 03:11:26;;;;;;;1.17;0.50;;;20.80;99.90;;;;;;4983038;28;20114;-73
2022/04/06 03:13:54;;;;;;;0.85;0.50;;;20.60;99.90;;;;;;4977141;28;20439;-73
2022/04/06 03:16:21;;;;;;;2.13;0.60;;;20.60;99.90;;;;;;4981550;28;20084;-73
2022/04/06 03:18:48;;;;;;;0.65;0.30;;;20.50;99.90;;;;;;4988534;28;20111;-73
2022/04/06 03:21:16;;;;;;;1.00;0.63;;;20.40;99.90;;;;;;4972361;28;20031;-73
2022/04/06 03:23:44;;;;;;;0.52;0.43;;;20.40;99.90;;;;;;4980218;28;20034;-72
2022/04/06 03:26:12;;;;;;;2.22;0.50;;;20.50;99.90;;;;;;4972723;28;20036;-73
2022/04/06 03:28:40;;;;;;;0.55;0.40;;;20.40;99.90;;;;;;4972177;28;20035;-72
2022/04/06 03:31:07;;;;;;;2.78;1.45;;;20.50;99.90;;;;;;4971038;28;20425;-73
2022/04/06 03:33:35;;;;;;;2.95;0.60;;;20.40;99.90;;;;;;4983359;28;20114;-72
2022/04/06 03:36:03;;;;;;;1.10;0.50;;;20.40;99.90;;;;;;4972607;28;20027;-73
2022/04/06 03:38:31;;;;;;;1.10;0.40;;;20.20;99.90;;;;;;4970908;28;20041;-73
2022/04/06 03:40:58;;;;;;;2.25;0.52;;;20.10;99.90;;;;;;4980999;28;20030;-73
2022/04/06 03:43:26;;;;;;;0.93;0.55;;;20.00;99.90;;;;;;4968005;28;20038;-73
2022/04/06 03:45:54;;;;;;;0.98;0.60;;;19.90;99.90;;;;;;4970726;28;20481;-73
2022/04/06 03:48:22;;;;;;;1.90;1.45;;;19.80;99.90;;;;;;4974180;28;20034;-74
2022/04/06 03:50:50;;;;;;;1.77;0.90;;;19.80;99.90;;;;;;4974266;28;20034;-72
2022/04/06 03:53:18;;;;;;;1.52;0.60;;;19.70;99.90;;;;;;4980608;28;20062;-72
2022/04/06 03:55:46;;;;;;;0.90;0.52;;;19.70;99.90;;;;;;4969266;28;20468;-72
2022/04/06 03:58:13;;;;;;;3.67;0.95;;;19.70;99.90;;;;;;4967401;28;20405;-72
2022/04/06 04:00:41;;;;;;;2.42;0.80;;;19.60;99.90;;;;;;4970497;28;20046;-73
2022/04/06 04:03:09;;;;;;;1.90;1.00;;;19.60;99.90;;;;;;4973396;28;20042;-73
2022/04/06 04:05:36;;;;;;;1.88;1.17;;;19.60;99.90;;;;;;4985244;28;20036;-73
2022/04/06 04:08:04;;;;;;;3.08;1.10;;;19.60;99.90;;;;;;4973982;28;20026;-73
2022/04/06 04:10:31;;;;;;;2.08;0.80;;;19.50;99.90;;;;;;4983459;28;20113;-74
2022/04/06 04:12:59;;;;;;;2.05;1.13;;;19.50;99.90;;;;;;4977077;28;20035;-71
2022/04/06 04:15:26;;;;;;;2.25;0.80;;;19.40;99.90;;;;;;4982390;28;20035;-73
2022/04/06 04:17:53;;;;;;;1.48;0.75;;;19.40;99.90;;;;;;4971675;28;20418;-72
2022/04/06 04:20:21;;;;;;;4.18;1.00;;;19.40;99.90;;;;;;4986206;28;20026;-72
2022/04/06 04:22:48;;;;;;;1.05;0.80;;;19.30;99.90;;;;;;4989802;28;20429;-73
2022/04/06 04:25:16;;;;;;;1.63;0.82;;;19.20;99.90;;;;;;4985662;28;20117;-73
2022/04/06 04:27:43;;;;;;;1.98;0.82;;;19.20;99.90;;;;;;4986107;28;20034;-73
2022/04/06 04:30:11;;;;;;;1.60;0.85;;;19.30;99.90;;;;;;4981444;28;20037;-74
2022/04/06 04:32:39;;;;;;;1.45;1.00;;;19.30;99.90;;;;;;4977580;28;20058;-73
2022/04/06 04:35:08;;;;;;;2.38;0.82;;;19.30;99.90;;;;;;4971637;28;20031;-72
2022/04/06 04:37:36;;;;;;;2.55;0.80;;;19.20;99.90;;;;;;4968568;28;20492;-74
2022/04/06 04:40:07;;;;;;;1.90;1.05;;;19.30;99.90;;;;;;4988175;28;20536;-72
2022/04/06 04:42:35;;;;;;;1.58;0.93;;;19.40;99.90;;;;;;4982156;28;20054;-72
2022/04/06 04:45:04;;;;;;;3.75;1.00;;;19.30;99.90;;;;;;4970743;28;20037;-73
2022/04/06 04:47:32;;;;;;;1.95;0.60;;;19.30;99.90;;;;;;4971885;28;20378;-73
2022/04/06 04:49:59;;;;;;;3.25;0.82;;;19.20;99.90;;;;;;4973914;28;20023;-73
2022/04/06 04:52:28;;;;;;;1.55;0.80;;;19.20;99.90;;;;;;4974424;28;20034;-72
2022/04/06 04:54:55;;;;;;;3.90;1.23;;;19.30;99.90;;;;;;4973107;28;20025;-74
2022/04/06 04:57:22;;;;;;;3.05;0.75;;;19.30;99.90;;;;;;4972865;28;20512;-73
2022/04/06 04:59:52;;;;;;;2.55;0.80;;;19.40;99.90;;;;;;4974603;28;20026;-74
2022/04/06 05:02:20;;;;;;;2.92;0.98;;;19.30;99.90;;;;;;4972151;28;20046;-73
2022/04/06 05:04:47;;;;;;;1.20;0.77;;;19.30;99.90;;;;;;4972580;28;20602;-73
2022/04/06 05:07:15;;;;;;;4.55;1.33;;;19.20;99.90;;;;;;4974135;28;20038;-73
2022/04/06 05:09:42;;;;;;;1.35;0.80;;;19.20;99.90;;;;;;4975074;28;20512;-73
2022/04/06 05:12:10;;;;;;;1.33;0.77;;;19.20;99.90;;;;;;4975173;28;20039;-73
2022/04/06 05:14:37;;;;;;;2.42;1.15;;;19.20;99.90;;;;;;4975653;28;20030;-73
2022/04/06 05:17:04;;;;;;;3.80;1.17;;;19.20;99.90;;;;;;4972972;28;20027;-73
2022/04/06 05:19:32;;;;;;;1.77;0.77;;;19.10;99.90;;;;;;4973151;28;20027;-73
2022/04/06 05:21:59;;;;;;;1.83;1.00;;;19.10;99.90;;;;;;4973693;28;20049;-73
2022/04/06 05:24:27;;;;;;;2.45;0.95;;;19.10;99.90;;;;;;4976406;28;20500;-73
2022/04/06 05:26:54;;;;;;;3.83;1.00;;;19.00;99.90;;;;;;4975141;28;20038;-73
2022/04/06 05:29:22;;;;;;;2.80;0.90;;;19.00;99.90;;;;;;4975267;28;22218;-72
2022/04/06 05:31:49;;;;;;;1.75;1.05;;;18.90;99.90;;;;;;4970214;28;20081;-73
2022/04/06 05:34:16;;;;;;;2.47;1.02;;;18.90;99.90;;;;;;4981388;28;20035;-73
2022/04/06 05:36:44;;;;;;;3.33;1.33;;;18.80;99.90;;;;;;4986862;28;20023;-72
2022/04/06 05:39:12;;;;;;;2.33;1.05;;;18.80;99.90;;;;;;4987413;28;20034;-72
2022/04/06 05:41:40;;;;;;;1.73;1.05;;;18.80;99.90;;;;;;4988071;28;20027;-73
2022/04/06 05:44:07;;;;;;;1.70;0.80;;;18.80;99.90;;;;;;4974686;28;20401;-73
2022/04/06 05:46:35;;;;;;;4.72;1.23;;;18.80;99.90;;;;;;4989875;28;20031;-72
2022/04/06 05:49:02;;;;;;;2.65;1.25;;;18.80;99.90;;;;;;4981612;28;20026;-73
2022/04/06 05:51:29;;;;;;;3.42;1.33;;;18.70;99.90;;;;;;4985498;28;20543;-72
2022/04/06 05:53:57;;;;;;;3.55;1.10;;;18.70;99.90;;;;;;4976074;28;20034;-71
2022/04/06 05:56:24;;;;;;;1.63;0.60;;;18.70;99.90;;;;;;4971595;28;20073;-71
2022/04/06 05:58:52;;;;;;;3.90;1.08;;;18.70;99.90;;;;;;4972674;28;20485;-72
2022/04/06 06:01:19;;;;;;;6.80;1.17;;;18.70;99.90;;;;;;4986725;28;20118;-72
2022/04/06 06:03:47;;;;;;;2.83;1.08;;;18.60;99.90;;;;;;4987108;28;20035;-72
2022/04/06 06:06:14;;;;;;;3.65;1.20;;;18.60;99.90;;;;;;4977375;28;20023;-73
2022/04/06 06:08:41;;;;;;;2.63;0.93;;;18.60;99.90;;;;;;4987557;28;20428;-73
2022/04/06 06:11:09;;;;;;;2.00;1.08;;;18.70;99.90;;;;;;4973901;28;20034;-73
2022/04/06 06:13:36;;;;;;;2.17;0.90;;;18.70;99.90;;;;;;4978480;28;20393;-73
2022/04/06 06:16:05;;;;;;;1.85;0.57;;;18.60;99.90;;;;;;4976928;28;20026;-71
2022/04/06 06:18:33;;;;;;;2.47;0.93;;;18.60;99.90;;;;;;4977247;28;20046;-72
2022/04/06 06:21:01;;;;;;;3.17;1.15;;;18.60;99.90;;;;;;4974183;28;20493;-72
2022/04/06 06:23:28;;;;;;;2.92;0.77;;;18.60;99.90;;;;;;4976436;28;20050;-72
2022/04/06 06:25:59;;;;;;;3.42;0.73;;;18.50;99.90;;;;;;4979588;28;20069;-75
2022/04/06 06:28:27;;;;;;;5.90;1.45;;;18.50;99.90;;;;;;4977953;28;20086;-74
2022/04/06 06:30:54;;;;;;;2.67;0.90;;;18.50;99.90;;;;;;4982882;28;20612;-73
2022/04/06 06:33:22;;;;;;;1.88;1.08;;;18.50;99.90;;;;;;4982240;28;20520;-73
2022/04/06 06:35:49;;;;;;;5.07;1.23;;;18.50;99.90;;;;;;4970816;28;21662;-74
2022/04/06 06:38:16;;;;;;;2.40;0.85;;;18.50;99.90;;;;;;4980578;28;20130;-74
2022/04/06 06:40:46;;;;;;;1.30;0.90;;;18.50;99.90;;;;;;4982533;28;20848;-73
2022/04/06 06:43:15;;;;;;;2.47;1.05;;;18.50;99.90;;;;;;4991112;28;20073;-74
2022/04/06 06:45:43;;;;;;;3.50;1.20;;;18.50;99.90;;;;;;4975797;28;20054;-71
2022/04/06 06:48:10;;;;;;;2.58;0.90;;;18.40;99.90;;;;;;4980088;28;20041;-72
2022/04/06 06:50:38;;;;;;;1.13;0.70;;;18.40;99.90;;;;;;4979402;28;20027;-72
2022/04/06 06:53:05;;;;;;;2.67;0.63;;;18.50;99.90;;;;;;4972726;28;20054;-73
2022/04/06 06:55:32;;;;;;;2.80;1.25;;;18.50;99.90;;;;;;4972230;28;20057;-73
2022/04/06 06:58:00;;;;;;;1.45;0.93;;;18.40;99.90;;;;;;4970429;28;20049;-73
2022/04/06 07:00:28;;;;;;;1.77;1.10;;;18.50;99.90;;;;;;4970079;28;20105;-72
2022/04/06 07:03:00;;;;;;;2.00;1.10;;;18.50;99.90;;;;;;4968448;28;20046;-73
2022/04/06 07:05:28;;;;;;;2.97;1.35;;;18.50;99.90;;;;;;4971357;28;20026;-73
2022/04/06 07:07:57;;;;;;;1.27;0.77;;;18.50;99.90;;;;;;4983981;28;20038;-73
2022/04/06 07:10:26;;;;;;;3.78;1.90;;;18.40;99.90;;;;;;4973666;28;20026;-73
2022/04/06 07:12:53;;;;;;;0.80;0.63;;;18.40;99.90;;;;;;4971297;28;20027;-73
2022/04/06 07:15:21;;;;;;;1.00;0.70;;;18.40;99.90;;;;;;4972676;28;20037;-73
2022/04/06 07:17:58;;;;;;;1.05;0.90;;;18.40;99.90;;;;;;4975409;28;20112;-72
2022/04/06 07:20:29;;;;;;;1.67;0.82;;;18.40;99.90;;;;;;4984645;28;20112;-71
2022/04/06 07:22:56;;;;;;;1.23;1.00;;;18.30;99.90;;;;;;4979175;28;20668;-73
2022/04/06 07:25:24;;;;;;;1.45;0.88;;;18.40;99.90;;;;;;4982424;28;20064;-72
2022/04/06 07:27:51;;;;;;;1.27;0.63;;;18.40;99.90;;;;;;4983865;28;20081;-73
2022/04/06 07:30:19;;;;;;;3.45;0.90;;;18.50;99.90;;;;;;4974834;28;20034;-73
2022/04/06 07:32:46;;;;;;;1.67;1.00;;;18.50;99.90;;;;;;4972968;28;20052;-72
2022/04/06 07:35:13;;;;;;;2.80;0.85;;;18.50;99.90;;;;;;4983602;28;20509;-73
2022/04/06 07:37:49;;;;;;;2.20;1.90;;;18.50;99.90;;;;;;4980086;28;20026;-73
2022/04/06 07:40:19;;;;;;;4.97;1.70;;;18.50;99.90;;;;;;4981951;28;20033;-73
2022/04/06 07:42:46;;;;;;;1.85;1.23;;;18.40;99.90;;;;;;4985722;28;20038;-73
2022/04/06 07:45:18;;;;;;;1.95;1.00;;;18.30;99.90;;;;;;4985611;28;20029;-72
2022/04/06 07:47:47;;;;;;;1.75;1.15;;;18.30;99.90;;;;;;4974949;28;20034;-73
2022/04/06 07:57:06;;;;;;;3.55;1.25;;;18.20;99.90;;;;;;4966193;28;20108;-73
2022/04/06 07:59:34;;;;;;;3.22;1.25;;;18.20;99.90;;;;;;4979631;28;20077;-73
2022/04/06 08:02:02;;;;;;;4.07;0.98;;;18.20;99.90;;;;;;4986990;28;20042;-73
2022/04/06 08:04:29;;;;;;;3.38;1.10;;;18.20;99.90;;;;;;4971497;28;20051;-75
2022/04/06 08:06:56;;;;;;;2.47;1.17;;;18.20;99.90;;;;;;4985326;28;20508;-74
2022/04/06 08:09:24;;;;;;;1.77;0.85;;;18.20;99.90;;;;;;4972893;28;20363;-73
2022/04/06 08:11:51;;;;;;;1.58;0.90;;;18.20;99.90;;;;;;4975465;28;20026;-74
2022/04/06 08:14:19;;;;;;;3.10;0.93;;;18.20;99.90;;;;;;4988878;28;20038;-73
2022/04/06 08:16:46;;;;;;;1.27;0.70;;;18.20;99.90;;;;;;4981318;28;20042;-73
2022/04/06 08:19:13;;;;;;;0.93;0.80;;;18.20;99.90;;;;;;4973150;28;20539;-73
2022/04/06 08:21:41;;;;;;;2.22;1.08;;;18.10;99.90;;;;;;4983218;28;20128;-73
2022/04/06 08:24:08;;;;;;;7.45;0.98;;;18.10;99.90;;;;;;4986069;28;20031;-71
2022/04/06 08:26:36;;;;;;;3.20;1.15;;;18.10;99.90;;;;;;4975005;28;20035;-73
2022/04/06 08:29:03;;;;;;;1.55;1.10;;;18.10;99.90;;;;;;4978425;28;20058;-72
2022/04/06 08:31:31;;;;;;;2.97;1.30;;;18.10;99.90;;;;;;4973206;28;20034;-72
2022/04/06 08:33:58;;;;;;;1.42;0.68;;;18.10;99.90;;;;;;4975533;28;20057;-73
2022/04/06 08:36:26;;;;;;;1.40;0.93;;;18.10;99.90;;;;;;4981664;28;20400;-72
2022/04/06 08:38:53;;;;;;;3.00;1.15;;;18.10;99.90;;;;;;4989992;28;20477;-73
2022/04/06 08:41:26;;;;;;;0.95;0.80;;;18.00;99.90;;;;;;4980165;28;20027;-73
2022/04/06 08:44:01;;;;;;;1.52;1.02;;;18.10;99.90;;;;;;4975836;28;20038;-73
2022/04/06 08:46:36;;;;;;;1.88;1.00;;;18.00;99.90;;;;;;4987250;28;20093;-74
2022/04/06 08:49:04;;;;;;;2.35;0.75;;;18.00;99.90;;;;;;4984790;28;20073;-73
2022/04/06 08:51:36;;;;;;;1.42;0.95;;;18.00;99.90;;;;;;4976484;28;20110;-73
2022/04/06 08:54:04;;;;;;;3.08;0.90;;;18.00;99.90;;;;;;4983551;28;20080;-73
2022/04/06 08:56:31;;;;;;;1.52;0.70;;;18.00;99.90;;;;;;4981614;28;20049;-74
2022/04/06 08:59:00;;;;;;;2.95;1.10;;;18.00;99.90;;;;;;4980226;28;20031;-74
2022/04/06 09:01:36;;;;;;;1.35;0.80;;;17.90;99.90;;;;;;4977702;28;20022;-72
2022/04/06 09:04:03;;;;;;;1.60;0.95;;;17.90;99.90;;;;;;4975063;28;20380;-72
2022/04/06 09:06:40;;;;;;;1.00;0.68;;;17.90;99.90;;;;;;4988583;28;20050;-73
2022/04/06 09:09:09;;;;;;;1.30;0.80;;;17.80;99.90;;;;;;4986571;28;20070;-74
2022/04/06 09:11:44;;;;;;;2.03;0.77;;;17.80;99.90;;;;;;4985160;28;20113;-74
2022/04/06 09:14:12;;;;;;;2.47;1.25;;;17.80;99.90;;;;;;4981591;28;20026;-74
2022/04/06 09:16:39;;;;;;;2.40;0.93;;;17.70;99.90;;;;;;4987611;28;20058;-73
2022/04/06 09:19:12;;;;;;;2.92;0.90;;;17.70;99.90;;;;;;4974534;28;20118;-73
2022/04/06 09:21:46;;;;;;;5.03;0.90;;;17.70;99.90;;;;;;4986312;28;20026;-73
2022/04/06 09:24:24;;;;;;;1.80;0.75;;;17.70;99.90;;;;;;4979515;28;20485;-73
2022/04/06 09:27:02;;;;;;;1.20;0.70;;;17.80;99.90;;;;;;4984972;28;20118;-73
2022/04/06 09:29:30;;;;;;;3.08;1.10;;;17.70;99.90;;;;;;4985780;28;20042;-73
2022/04/06 09:32:07;;;;;;;1.50;0.60;;;17.80;99.90;;;;;;4990346;28;20504;-73
2022/04/06 09:34:34;;;;;;;0.93;0.70;;;17.70;99.90;;;;;;4983673;28;20489;-73
2022/04/06 09:37:28;;;;;;;0.90;0.50;;;17.70;99.90;;;;;;4988974;28;20126;-73
2022/04/06 09:39:57;;;;;;;0.98;0.38;;;17.70;99.90;;;;;;4976851;28;20030;-73
2022/04/06 09:42:28;;;;;;;2.47;0.80;;;17.70;99.90;;;;;;4992846;28;20041;-73
2022/04/06 09:47:52;;;;;;;1.10;0.60;;;17.70;99.90;;;;;;4975263;28;20042;-74
2022/04/06 09:50:26;;;;;;;2.22;0.70;;;17.70;99.90;;;;;;4989234;28;20058;-74
2022/04/06 09:52:59;;;;;;;0.80;0.52;;;17.70;99.90;;;;;;4975563;28;20043;-73
2022/04/06 09:55:27;;;;;;;1.17;0.70;;;17.70;99.90;;;;;;4976387;28;20022;-74
2022/04/06 09:57:56;;;;;;;3.55;1.00;;;17.60;99.90;;;;;;5003695;28;20110;-72
2022/04/06 10:00:26;;;;;;;0.75;0.57;;;17.60;99.90;;;;;;5001948;28;20038;-72
2022/04/06 10:03:10;;;;;;;2.47;0.40;;;17.60;99.90;;;;;;4991015;28;20062;-74
2022/04/06 10:05:42;;;;;;;1.20;0.40;;;17.60;99.90;;;;;;4979454;28;20113;-74
2022/04/06 10:08:11;;;;;;;1.40;0.55;;;17.60;99.90;;;;;;4990135;28;20035;-74
2022/04/06 10:10:41;;;;;;;1.08;0.50;;;17.60;99.90;;;;;;4975210;28;20034;-74
2022/04/06 10:13:09;;;;;;;1.05;0.55;;;17.60;99.90;;;;;;4977165;28;20097;-72
2022/04/06 10:15:38;;;;;;;1.13;0.57;;;17.60;99.90;;;;;;4985122;28;20027;-73
2022/04/06 10:18:06;;;;;;;1.42;0.47;;;17.60;99.90;;;;;;4988122;28;20042;-73
2022/04/06 10:20:36;;;;;;;2.85;0.82;;;17.60;99.90;;;;;;4977371;28;20022;-73
2022/04/06 10:23:06;;;;;;;3.35;0.70;;;17.50;99.90;;;;;;4992924;28;20034;-73
2022/04/06 10:26:06;;;;;;;0.50;0.40;;;17.60;99.90;;;;;;4978535;28;20046;-73
2022/04/06 10:28:34;;;;;;;1.25;0.50;;;17.50;99.90;;;;;;4992326;28;20038;-73
2022/04/06 10:31:17;;;;;;;1.95;0.50;;;17.50;99.90;;;;;;4990633;28;20022;-73
2022/04/06 10:33:49;;;;;;;3.35;0.50;;;17.50;99.90;;;;;;4985191;28;20062;-73
2022/04/06 10:36:32;;;;;;;0.63;0.50;;;17.50;99.90;;;;;;4991101;28;20038;-73
2022/04/06 10:39:06;;;;;;;1.48;0.70;;;17.50;99.90;;;;;;4981334;28;20070;-73
2022/04/06 10:41:34;;;;;;;0.43;0.40;;;17.50;99.90;;;;;;4973087;28;20069;-74
2022/04/06 10:44:02;;;;;;;2.22;0.50;;;17.50;99.90;;;;;;4974888;28;20420;-72
2022/04/06 10:46:42;;;;;;;1.33;0.40;;;17.50;99.90;;;;;;4983357;28;20030;-74
2022/04/06 10:49:14;;;;;;;1.65;0.50;;;17.60;99.90;;;;;;4975532;28;20026;-73
2022/04/06 10:51:42;;;;;;;1.65;0.47;;;17.60;99.90;;;;;;4981912;28;20022;-73
2022/04/06 10:54:15;;;;;;;1.30;0.73;;;17.50;99.90;;;;;;4976061;28;20035;-73
2022/04/06 10:57:03;;;;;;;0.80;0.55;;;17.60;99.90;;;;;;4986036;28;20023;-72
2022/04/06 10:59:30;;;;;;;1.05;0.57;;;17.60;99.90;;;;;;4989406;28;20035;-74
2022/04/06 11:02:17;;;;;;;2.05;0.50;;;17.50;99.90;;;;;;4990347;28;20034;-74
2022/04/06 11:04:47;;;;;;;0.95;0.55;;;17.60;99.90;;;;;;4979069;28;20101;-74
2022/04/06 11:10:06;;;;;;;0.88;0.40;;;17.50;99.90;;;;;;4979226;28;20038;-74
2022/04/06 11:10:15;;;;;;;2.55;1.10;;;17.50;99.90;;;;;;4985460;28;20700;-73
2022/04/06 11:12:59;;;;;;;1.80;0.30;;;17.50;99.90;;;;;;4991279;28;20110;-72
2022/04/06 11:15:41;;;;;;;0.85;0.65;;;17.50;99.90;;;;;;4976475;28;20081;-72
2022/04/06 11:18:50;;;;;;;0.98;0.40;;;17.50;99.90;;;;;;4973203;28;20019;-73
2022/04/06 11:21:17;;;;;;;1.08;0.57;;;17.50;99.90;;;;;;4981053;28;20046;-73
2022/04/06 11:23:45;;;;;;;1.10;0.63;;;17.50;99.90;;;;;;4991853;28;20066;-73
2022/04/06 11:26:13;;;;;;;4.38;0.70;;;17.50;99.90;;;;;;4985706;28;20038;-73
2022/04/06 11:28:40;;;;;;;0.75;0.50;;;17.60;99.90;;;;;;4983412;28;20559;-73
2022/04/06 11:31:08;;;;;;;1.55;0.50;;;17.60;99.90;;;;;;4973796;28;20085;-74
2022/04/06 11:33:42;;;;;;;1.73;0.43;;;17.60;99.90;;;;;;4973616;28;20061;-72
2022/04/06 11:36:15;;;;;;;1.92;0.70;;;17.60;99.90;;;;;;4982667;28;20045;-72
2022/04/06 11:38:47;;;;;;;1.00;0.60;;;17.60;99.90;;;;;;4988806;28;20057;-73
2022/04/06 11:41:15;;;;;;;1.35;0.60;;;17.70;99.90;;;;;;4978182;28;20041;-72
2022/04/06 11:43:42;;;;;;;1.40;0.68;;;17.60;99.90;;;;;;4975198;28;20031;-70
2022/04/06 11:46:10;;;;;;;1.35;0.70;;;17.70;99.90;;;;;;4979984;28;20026;-73
2022/04/06 11:48:42;;;;;;;1.75;0.80;;;17.60;99.90;;;;;;4987303;28;20034;-73
2022/04/06 11:51:10;;;;;;;0.88;0.63;;;17.60;99.90;;;;;;4984082;28;20023;-73
2022/04/06 11:53:38;;;;;;;0.70;0.40;;;17.70;99.90;;;;;;4975326;28;20519;-73
2022/04/06 11:56:05;;;;;;;1.10;0.52;;;17.70;99.90;;;;;;4978984;28;20026;-74
2022/04/06 11:58:34;;;;;;;2.80;0.43;;;17.70;99.90;;;;;;4990509;28;20393;-73
2022/04/06 12:01:06;;;;;;;2.63;1.17;;;17.70;99.90;;;;;;4989029;28;20034;-74
2022/04/06 12:03:38;;;;;;;0.77;0.50;;;17.70;99.90;;;;;;4986535;28;20393;-74
2022/04/06 12:06:09;;;;;;;1.33;0.60;;;17.70;99.90;;;;;;4974368;28;20029;-72
2022/04/06 12:08:38;;;;;;;0.93;0.60;;;17.70;99.90;;;;;;4973501;28;20436;-72
2022/04/06 12:11:05;;;;;;;2.30;0.60;;;17.70;99.90;;;;;;4974156;28;20030;-73
2022/04/06 12:13:38;;;;;;;0.73;0.50;;;17.70;99.90;;;;;;4984716;28;20359;-73
2022/04/06 12:16:06;;;;;;;1.60;0.50;;;17.70;99.90;;;;;;4969529;28;20034;-72
2022/04/06 12:18:37;;;;;;;1.02;0.35;;;17.70;99.90;;;;;;4971066;28;20485;-72
2022/04/06 12:21:22;;;;;;;1.70;0.60;;;17.70;99.90;;;;;;4976566;28;20077;-72
2022/04/06 12:23:51;;;;;;;1.85;0.52;;;17.70;99.90;;;;;;4979296;28;20047;-73
2022/04/06 12:26:26;;;;;;;1.70;0.40;;;17.70;99.90;;;;;;4968897;28;20361;-73
2022/04/06 12:29:00;;;;;;;3.50;0.47;;;17.60;99.90;;;;;;4976276;28;20504;-73
2022/04/06 12:31:39;;;;;;;0.57;0.40;;;17.70;99.90;;;;;;4985739;28;20038;-74
2022/04/06 12:34:10;;;;;;;1.80;0.57;;;17.70;99.90;;;;;;4964748;28;20516;-73
2022/04/06 12:36:38;;;;;;;1.30;0.40;;;17.70;99.90;;;;;;4949390;28;20062;-73
2022/04/06 12:39:10;;;;;;;4.15;0.60;;;17.70;99.90;;;;;;4955433;28;20118;-73
2022/04/06 12:42:08;;;;;;;0.73;0.38;;;17.70;99.90;;;;;;4959554;28;20077;-74
2022/04/06 12:44:38;;;;;;;0.47;0.30;;;17.70;99.90;;;;;;4949196;28;20118;-73
2022/04/06 12:47:19;;;;;;;0.50;0.40;;;17.70;99.90;;;;;;4949184;28;20023;-73
2022/04/06 12:49:47;;;;;;;0.22;0.20;;;17.80;99.90;;;;;;4950089;28;20211;-72
2022/04/06 12:52:27;;;;;;;1.95;0.30;;;17.80;99.90;;;;;;4949600;28;20421;-72
2022/04/06 12:55:05;;;;;;;0.40;0.30;;;17.80;99.90;;;;;;4952095;28;20525;-72
2022/04/06 12:57:36;;;;;;;0.35;0.30;;;17.80;99.90;;;;;;4950150;28;20039;-74
2022/04/06 13:00:22;;;;;;;0.77;0.20;;;17.80;99.90;;;;;;4951919;28;20034;-74
2022/04/06 13:02:52;;;;;;;2.80;0.63;;;17.80;99.90;;;;;;4952712;28;20039;-73
2022/04/06 13:05:22;;;;;;;1.05;0.30;;;17.90;99.90;;;;;;4953053;28;20031;-74
2022/04/06 13:07:53;;;;;;;0.20;0.20;;;17.90;99.90;;;;;;4954958;28;20034;-73
2022/04/06 13:10:28;;;;;;;0.60;0.20;;;17.90;99.90;;;;;;4952178;28;20030;-73
2022/04/06 13:12:57;;;;;;;1.20;0.60;;;17.90;99.90;;;;;;4958466;28;20030;-73
2022/04/06 13:15:24;;;;;;;0.60;0.20;;;17.90;99.90;;;;;;4970335;28;20094;-73